Time;durP1;ratioP1;P1;durP2;ratioP2;P2;SDS_P1;SDS_P2;PMS_P1;PMS_P2;Temp;Humidity;BMP_temperature;BMP_pressure;BME280_temperature;BME280_humidity;BME280_pressure;Samples;Min_cycle;Max_cycle;Signal;HPM_P1;HPM_P2
2023/11/01 00:00:28;;;;;;;4.20;2.50;;;;;;;11.82;81.19;99414.58;129892;1260;115392;-62
2023/11/01 00:03:50;;;;;;;3.90;2.40;;;;;;;11.81;80.82;99418.22;129995;1260;115498;-60
2023/11/01 00:06:52;;;;;;;5.20;2.60;;;;;;;11.81;80.97;99420.02;129759;1270;114885;-60
2023/11/01 00:09:54;;;;;;;6.10;2.50;;;;;;;11.81;80.97;99420.73;130010;1270;115129;-64
2023/11/01 00:12:56;;;;;;;3.60;1.80;;;;;;;11.81;81.04;99422.67;129623;1263;114821;-61
2023/11/01 00:15:58;;;;;;;3.40;2.10;;;;;;;11.81;80.82;99424.81;130010;1276;115112;-66
2023/11/01 00:19:00;;;;;;;5.70;2.00;;;;;;;11.81;81.04;99422.70;130145;1260;115025;-65
2023/11/01 00:22:02;;;;;;;5.00;2.50;;;;;;;11.81;80.97;99427.36;129726;1260;115145;-67
2023/11/01 00:25:05;;;;;;;4.40;2.40;;;;;;;11.80;80.81;99425.94;129986;1269;114820;-63
2023/11/01 00:28:07;;;;;;;4.90;1.90;;;;;;;11.80;80.97;99425.98;130008;1259;114796;-60
2023/11/01 00:31:09;;;;;;;4.60;1.70;;;;;;;11.79;80.97;99429.61;130042;1264;114814;-63
2023/11/01 00:34:10;;;;;;;2.60;2.10;;;;;;;11.78;80.61;99432.56;129710;1261;114779;-62
2023/11/01 00:37:13;;;;;;;5.60;1.80;;;;;;;11.78;80.81;99439.54;129947;1268;115080;-61
2023/11/01 00:40:15;;;;;;;9.60;2.30;;;;;;;11.78;80.77;99445.75;130284;1261;114935;-61
2023/11/01 00:43:17;;;;;;;3.90;1.90;;;;;;;11.78;80.84;99444.52;129842;1262;115063;-66
2023/11/01 00:46:20;;;;;;;7.40;1.90;;;;;;;11.79;80.56;99447.17;130077;1267;115253;-64
2023/11/01 00:49:23;;;;;;;6.40;1.90;;;;;;;11.79;80.99;99449.31;130003;1259;114782;-68
2023/11/01 00:52:25;;;;;;;3.80;1.80;;;;;;;11.79;80.63;99453.24;130117;1260;114717;-67
2023/11/01 00:55:27;;;;;;;4.30;1.90;;;;;;;11.79;80.80;99451.64;129989;1276;114689;-65
2023/11/01 00:58:29;;;;;;;5.10;1.90;;;;;;;11.78;80.72;99455.08;130073;1259;114805;-67
2023/11/01 01:01:32;;;;;;;5.00;2.10;;;;;;;11.78;80.70;99456.90;129941;1261;114910;-66
2023/11/01 01:04:34;;;;;;;3.60;1.80;;;;;;;11.77;80.96;99457.66;129977;1258;115256;-62
2023/11/01 01:07:36;;;;;;;3.30;1.90;;;;;;;11.76;80.91;99452.02;129748;1262;114990;-64
2023/11/01 01:10:39;;;;;;;4.80;1.70;;;;;;;11.75;80.94;99460.46;129950;1277;114840;-68
2023/11/01 01:13:41;;;;;;;5.70;2.70;;;;;;;11.75;81.00;99463.70;129880;1259;114694;-67
2023/11/01 01:16:43;;;;;;;6.30;1.60;;;;;;;11.74;80.90;99460.89;129954;1259;115145;-61
2023/11/01 01:19:46;;;;;;;5.50;2.00;;;;;;;11.74;80.78;99457.72;129664;1263;128364;-61
2023/11/01 01:22:48;;;;;;;3.80;2.10;;;;;;;11.73;80.83;99456.48;130030;1260;114757;-61
2023/11/01 01:25:50;;;;;;;4.60;2.00;;;;;;;11.73;80.80;99457.92;130102;1270;114807;-66
2023/11/01 01:28:52;;;;;;;4.60;2.40;;;;;;;11.73;80.74;99462.76;130099;1267;114779;-68
2023/11/01 01:31:55;;;;;;;4.80;2.40;;;;;;;11.74;80.93;99467.90;129878;1263;114932;-62
2023/11/01 01:34:57;;;;;;;4.80;2.40;;;;;;;11.74;80.84;99465.05;129997;1259;114788;-61
2023/11/01 01:37:59;;;;;;;4.90;2.30;;;;;;;11.74;81.03;99466.45;129723;1261;114703;-63
2023/11/01 01:41:02;;;;;;;4.70;2.20;;;;;;;11.74;81.00;99463.38;129985;1267;114782;-65
2023/11/01 01:44:05;;;;;;;4.70;2.00;;;;;;;11.74;81.19;99465.23;129938;1267;114814;-68
2023/11/01 01:47:07;;;;;;;7.20;2.40;;;;;;;11.72;81.41;99462.27;129985;1258;114816;-69
2023/11/01 01:50:10;;;;;;;7.90;2.00;;;;;;;11.73;81.65;99467.64;129973;1277;114832;-67
2023/11/01 01:53:12;;;;;;;3.50;2.10;;;;;;;11.73;81.66;99469.23;129789;1254;115514;-65
2023/11/01 01:56:15;;;;;;;9.50;2.10;;;;;;;11.73;81.81;99472.09;129983;1267;114718;-67
2023/11/01 01:59:17;;;;;;;5.10;2.20;;;;;;;11.73;81.93;99472.60;130166;1272;114712;-68
2023/11/01 02:02:20;;;;;;;5.70;2.30;;;;;;;11.72;81.71;99474.27;129690;1277;128588;-66
2023/11/01 02:05:23;;;;;;;9.00;2.60;;;;;;;11.71;81.80;99474.73;129976;1260;114735;-65
2023/11/01 02:08:25;;;;;;;4.50;2.10;;;;;;;11.69;81.73;99475.73;130079;1268;115032;-67
2023/11/01 02:11:27;;;;;;;4.60;2.10;;;;;;;11.68;81.69;99480.06;130100;1257;114825;-66
2023/11/01 02:14:29;;;;;;;6.10;2.30;;;;;;;11.68;81.88;99478.66;129520;1260;115339;-66
2023/11/01 02:17:31;;;;;;;5.10;2.20;;;;;;;11.67;81.81;99481.75;129935;1267;114682;-66
2023/11/01 02:20:35;;;;;;;8.30;1.70;;;;;;;11.65;81.63;99480.85;130066;1277;114722;-59
2023/11/01 02:23:38;;;;;;;3.50;2.20;;;;;;;11.63;81.42;99479.88;129775;1267;127481;-61
2023/11/01 02:26:40;;;;;;;4.80;1.90;;;;;;;11.62;81.48;99479.58;129803;1275;115243;-61
2023/11/01 02:29:43;;;;;;;5.70;1.60;;;;;;;11.62;81.73;99483.52;130120;1267;115209;-60
2023/11/01 02:32:48;;;;;;;4.10;2.00;;;;;;;11.62;81.72;99482.96;129947;1270;114731;-61
2023/11/01 02:35:50;;;;;;;4.90;1.90;;;;;;;11.62;81.88;99480.69;130004;1277;114753;-62
2023/11/01 02:38:52;;;;;;;5.80;2.00;;;;;;;11.60;81.58;99479.05;130078;1264;114700;-63
2023/11/01 02:41:54;;;;;;;5.90;1.70;;;;;;;11.58;81.77;99480.09;129998;1267;115325;-61
2023/11/01 02:44:56;;;;;;;4.50;1.90;;;;;;;11.55;81.61;99483.78;129622;1274;116496;-62
2023/11/01 02:47:59;;;;;;;7.20;2.10;;;;;;;11.53;81.95;99487.90;130038;1260;114722;-61
2023/11/01 02:51:02;;;;;;;4.20;1.80;;;;;;;11.50;81.83;99488.06;129890;1260;114855;-61
2023/11/01 02:54:04;;;;;;;6.70;2.40;;;;;;;11.48;81.93;99491.05;130139;1270;114659;-62
2023/11/01 02:57:07;;;;;;;5.70;2.00;;;;;;;11.46;82.00;99492.45;129917;1270;115441;-61
2023/11/01 03:00:18;;;;;;;3.20;1.60;;;;;;;11.45;82.10;99495.20;130023;1277;114776;-60
2023/11/01 03:03:20;;;;;;;6.90;1.70;;;;;;;11.43;81.86;99498.39;129937;1260;115163;-61
2023/11/01 03:06:22;;;;;;;5.50;2.40;;;;;;;11.41;82.01;99497.08;129968;1267;115377;-61
2023/11/01 03:09:24;;;;;;;8.20;1.90;;;;;;;11.40;82.41;99499.30;130041;1259;114728;-60
2023/11/01 03:12:27;;;;;;;5.70;1.60;;;;;;;11.39;82.59;99496.33;129855;1276;114725;-61
2023/11/01 03:15:29;;;;;;;5.10;1.90;;;;;;;11.38;82.16;99501.39;130003;1263;114725;-61
2023/11/01 03:18:31;;;;;;;6.00;2.00;;;;;;;11.36;82.30;99501.13;130105;1260;114692;-60
2023/11/01 03:21:34;;;;;;;6.20;2.10;;;;;;;11.34;82.17;99509.11;129995;1277;128698;-61
2023/11/01 03:24:37;;;;;;;5.30;2.00;;;;;;;11.32;82.05;99508.58;129973;1264;115170;-61
2023/11/01 03:27:40;;;;;;;8.30;2.30;;;;;;;11.31;82.05;99512.21;130054;1260;114860;-60
2023/11/01 03:30:42;;;;;;;7.60;2.30;;;;;;;11.28;82.38;99516.52;130057;1257;114851;-64
2023/11/01 03:33:46;;;;;;;4.40;2.10;;;;;;;11.24;82.36;99515.69;130090;1277;114950;-60
2023/11/01 03:36:48;;;;;;;4.20;2.20;;;;;;;11.19;82.65;99520.11;129717;1263;114827;-61
2023/11/01 03:39:50;;;;;;;5.50;2.30;;;;;;;11.13;82.43;99523.00;129890;1260;114731;-61
2023/11/01 03:42:52;;;;;;;5.40;1.90;;;;;;;11.04;82.07;99525.71;130157;1270;114748;-62
2023/11/01 03:45:54;;;;;;;5.10;1.80;;;;;;;10.94;81.90;99531.88;129693;1254;115234;-63
2023/11/01 03:48:56;;;;;;;3.80;1.90;;;;;;;10.85;82.20;99533.40;129931;1260;114797;-63
2023/11/01 03:52:00;;;;;;;5.70;2.00;;;;;;;10.75;81.89;99537.37;129779;1263;114796;-61
2023/11/01 03:55:02;;;;;;;10.50;2.40;;;;;;;10.64;82.21;99540.89;130043;1267;114689;-62
2023/11/01 03:58:04;;;;;;;6.60;2.00;;;;;;;10.53;82.23;99534.63;129921;1257;114731;-67
2023/11/01 04:01:07;;;;;;;4.50;1.90;;;;;;;10.44;82.35;99537.16;130015;1254;115135;-68
2023/11/01 04:04:09;;;;;;;5.30;2.50;;;;;;;10.36;82.51;99539.73;130139;1276;114814;-61
2023/11/01 04:07:12;;;;;;;5.90;2.80;;;;;;;10.31;82.36;99538.98;129673;1276;114794;-62
2023/11/01 04:10:14;;;;;;;3.70;2.10;;;;;;;10.26;82.52;99542.83;130046;1256;115601;-67
2023/11/01 04:13:16;;;;;;;5.70;2.30;;;;;;;10.20;82.59;99547.30;130217;1266;115148;-68
2023/11/01 04:16:19;;;;;;;6.20;2.50;;;;;;;10.13;82.53;99546.29;130079;1276;115161;-61
2023/11/01 04:19:21;;;;;;;6.70;3.20;;;;;;;10.06;82.79;99550.25;130173;1276;114756;-62
2023/11/01 04:22:23;;;;;;;5.00;2.80;;;;;;;9.99;82.81;99548.70;130153;1260;114845;-68
2023/11/01 04:25:28;;;;;;;10.10;5.20;;;;;;;9.93;83.00;99548.71;130163;1254;115493;-66
2023/11/01 04:28:30;;;;;;;10.10;5.90;;;;;;;9.86;83.16;99551.06;129800;1261;115250;-61
2023/11/01 04:31:32;;;;;;;8.40;5.70;;;;;;;9.79;83.12;99545.63;130058;1253;114824;-61
2023/11/01 04:34:36;;;;;;;9.70;5.00;;;;;;;9.75;83.22;99550.33;130022;1276;114805;-61
2023/11/01 04:37:39;;;;;;;9.10;3.80;;;;;;;9.71;83.78;99552.67;130195;1260;115373;-61
2023/11/01 04:40:43;;;;;;;;;;;;;;;9.68;83.63;99558.55;130112;1257;129884;-61
2023/11/01 04:43:47;;;;;;;11.50;4.90;;;;;;;9.64;84.24;99558.40;130172;1256;114879;-60
2023/11/01 04:46:50;;;;;;;7.00;3.70;;;;;;;9.65;84.41;99560.66;130124;1259;114725;-64
2023/11/01 04:49:52;;;;;;;5.20;3.10;;;;;;;9.69;84.63;99561.89;130144;1266;114747;-66
2023/11/01 04:52:55;;;;;;;5.60;3.70;;;;;;;9.71;84.57;99568.12;129945;1264;115202;-62
2023/11/01 04:55:57;;;;;;;9.60;3.20;;;;;;;9.75;85.03;99566.35;130098;1257;114693;-60
2023/11/01 04:59:00;;;;;;;4.50;3.20;;;;;;;9.80;85.08;99567.81;129966;1264;129241;-61
2023/11/01 05:02:02;;;;;;;8.90;3.70;;;;;;;9.86;85.31;99566.96;129978;1266;115206;-64
2023/11/01 05:05:06;;;;;;;6.40;3.70;;;;;;;9.91;85.06;99563.50;129929;1257;114884;-61
2023/11/01 05:08:08;;;;;;;8.40;4.20;;;;;;;9.95;85.05;99564.32;130027;1257;114821;-61
2023/11/01 05:11:10;;;;;;;7.00;4.90;;;;;;;9.98;84.91;99565.20;130066;1254;114811;-59
2023/11/01 05:14:13;;;;;;;5.90;3.60;;;;;;;10.03;85.09;99567.40;129961;1269;114629;-59
2023/11/01 05:17:15;;;;;;;7.50;4.10;;;;;;;10.07;85.19;99567.71;130090;1258;114779;-66
2023/11/01 05:20:17;;;;;;;8.20;3.60;;;;;;;10.10;85.12;99566.13;129957;1254;114741;-63
2023/11/01 05:23:20;;;;;;;8.50;3.90;;;;;;;10.12;85.05;99569.72;130145;1257;114756;-61
2023/11/01 05:26:22;;;;;;;6.40;3.90;;;;;;;10.12;84.87;99570.79;130004;1277;114735;-60
2023/11/01 05:29:25;;;;;;;8.30;3.50;;;;;;;10.14;85.04;99575.52;129984;1257;114727;-67
2023/11/01 05:32:27;;;;;;;5.20;3.60;;;;;;;10.15;85.10;99578.10;130004;1254;114692;-60
2023/11/01 05:35:29;;;;;;;8.40;3.70;;;;;;;10.17;85.11;99584.78;130096;1257;114726;-60
2023/11/01 05:38:32;;;;;;;9.50;4.50;;;;;;;10.18;85.02;99585.95;129674;1273;128315;-61
2023/11/01 05:41:34;;;;;;;4.80;3.50;;;;;;;10.19;85.13;99586.79;129943;1253;114765;-63
2023/11/01 05:44:37;;;;;;;6.70;4.10;;;;;;;10.19;85.06;99586.95;129801;1270;114926;-67
2023/11/01 05:47:39;;;;;;;5.10;3.80;;;;;;;10.19;85.07;99582.12;130074;1254;114738;-64
2023/11/01 05:50:43;;;;;;;9.10;4.20;;;;;;;10.20;84.76;99585.67;130030;1268;114884;-60
2023/11/01 05:53:46;;;;;;;8.50;4.30;;;;;;;10.21;84.78;99593.48;130015;1277;114718;-60
2023/11/01 05:56:48;;;;;;;6.20;3.60;;;;;;;10.22;84.83;99593.05;129995;1262;114767;-63
2023/11/01 05:59:50;;;;;;;6.00;3.70;;;;;;;10.22;84.71;99597.15;129918;1260;115157;-63
2023/11/01 06:02:52;;;;;;;5.90;3.90;;;;;;;10.23;84.87;99594.95;130027;1267;114724;-65
2023/11/01 06:05:57;;;;;;;6.40;4.40;;;;;;;10.25;84.98;99599.49;129910;1277;114974;-64
2023/11/01 06:08:59;;;;;;;6.20;4.10;;;;;;;10.27;84.82;99608.27;129942;1258;114728;-68
2023/11/01 06:12:05;;;;;;;5.30;3.50;;;;;;;10.29;84.64;99608.70;129906;1270;114905;-68
2023/11/01 06:15:10;;;;;;;4.30;2.70;;;;;;;10.30;84.79;99616.63;129877;1277;128394;-66
2023/11/01 06:18:12;;;;;;;3.60;3.00;;;;;;;10.34;85.06;99618.19;129720;1277;114721;-61
2023/11/01 06:21:14;;;;;;;6.50;3.20;;;;;;;10.38;84.92;99621.91;129990;1257;115483;-67
2023/11/01 06:24:17;;;;;;;6.00;3.30;;;;;;;10.43;85.16;99628.77;130203;1257;114891;-61
2023/11/01 06:27:19;;;;;;;7.00;4.40;;;;;;;10.49;85.53;99634.67;130205;1260;114642;-60
2023/11/01 06:30:21;;;;;;;5.20;3.60;;;;;;;10.54;85.45;99637.39;129989;1277;115167;-61
2023/11/01 06:33:23;;;;;;;4.30;3.20;;;;;;;10.59;85.69;99633.02;130026;1257;114778;-67
2023/11/01 06:36:25;;;;;;;8.80;3.50;;;;;;;10.64;85.44;99635.75;129817;1275;128622;-62
2023/11/01 06:39:28;;;;;;;7.90;4.20;;;;;;;10.71;85.63;99635.13;130046;1257;114773;-61
2023/11/01 06:42:31;;;;;;;6.40;3.40;;;;;;;10.78;85.52;99636.16;130002;1257;114729;-61
2023/11/01 06:45:35;;;;;;;5.40;3.50;;;;;;;10.84;85.54;99633.78;130155;1277;115226;-65
2023/11/01 06:48:38;;;;;;;7.50;3.30;;;;;;;10.90;85.58;99636.82;129955;1257;114814;-62
2023/11/01 06:51:40;;;;;;;7.40;3.00;;;;;;;10.97;85.54;99639.45;129974;1272;114880;-62
2023/11/01 06:54:43;;;;;;;7.80;3.40;;;;;;;11.01;85.20;99638.11;129892;1255;114754;-64
2023/11/01 06:57:45;;;;;;;6.80;3.30;;;;;;;11.03;85.07;99645.33;130010;1257;114791;-62
2023/11/01 07:00:49;;;;;;;5.50;3.60;;;;;;;11.06;85.14;99644.06;130135;1257;115259;-67
2023/11/01 07:03:51;;;;;;;5.30;3.60;;;;;;;11.10;85.03;99638.45;129666;1261;115153;-61
2023/11/01 07:06:54;;;;;;;4.50;3.50;;;;;;;11.15;85.23;99641.18;130004;1260;114680;-60
2023/11/01 07:09:56;;;;;;;6.30;3.30;;;;;;;11.21;85.09;99638.86;130081;1270;115256;-63
2023/11/01 07:12:58;;;;;;;6.40;4.20;;;;;;;11.28;85.25;99632.34;130002;1277;115090;-61
2023/11/01 07:16:01;;;;;;;4.50;3.30;;;;;;;11.35;84.90;99632.60;130038;1257;128475;-61
2023/11/01 07:19:03;;;;;;;10.80;3.70;;;;;;;11.42;84.90;99636.48;129861;1268;114719;-60
2023/11/01 07:22:05;;;;;;;3.70;3.30;;;;;;;11.46;84.80;99633.50;130039;1257;114703;-60
2023/11/01 07:25:08;;;;;;;8.20;4.00;;;;;;;11.51;84.56;99636.59;130103;1277;114917;-65
2023/11/01 07:28:10;;;;;;;10.30;3.50;;;;;;;11.52;84.76;99632.40;130083;1257;114840;-60
2023/11/01 07:31:13;;;;;;;5.90;3.60;;;;;;;11.58;84.56;99637.09;130019;1268;114699;-60
2023/11/01 07:34:15;;;;;;;7.40;3.40;;;;;;;11.60;84.37;99635.30;129980;1270;114887;-61
2023/11/01 07:37:17;;;;;;;5.70;3.40;;;;;;;11.64;84.22;99634.88;129962;1267;114764;-63
2023/11/01 07:40:20;;;;;;;7.90;4.20;;;;;;;11.70;84.49;99635.36;129726;1277;115252;-61
2023/11/01 07:43:22;;;;;;;6.40;3.70;;;;;;;11.79;84.72;99630.17;130069;1257;115342;-62
2023/11/01 07:46:24;;;;;;;5.50;3.30;;;;;;;11.88;84.61;99632.27;129991;1257;114792;-61
2023/11/01 07:49:26;;;;;;;3.90;2.80;;;;;;;11.96;84.41;99634.09;129879;1272;114623;-65
2023/11/01 07:52:29;;;;;;;4.90;3.40;;;;;;;12.06;84.44;99637.93;129578;1264;116091;-61
2023/11/01 07:55:31;;;;;;;6.20;3.00;;;;;;;12.13;84.17;99638.15;130017;1258;114718;-67
2023/11/01 07:58:34;;;;;;;2.90;2.50;;;;;;;12.20;83.91;99639.48;129605;1280;114917;-67
2023/11/01 08:01:36;;;;;;;4.10;2.80;;;;;;;12.27;83.93;99640.24;129510;1269;114973;-62
2023/11/01 08:04:38;;;;;;;8.70;3.70;;;;;;;12.38;83.96;99640.26;129434;1268;114895;-70
2023/11/01 08:07:41;;;;;;;4.30;3.00;;;;;;;12.50;83.84;99644.63;129861;1281;114844;-65
2023/11/01 08:10:43;;;;;;;4.60;2.90;;;;;;;12.62;83.69;99646.34;129945;1264;114894;-74
2023/11/01 08:13:45;;;;;;;7.20;3.40;;;;;;;12.73;83.47;99646.85;129791;1281;114901;-62
2023/11/01 08:16:47;;;;;;;3.60;2.80;;;;;;;12.84;83.37;99654.15;130012;1262;114816;-74
2023/11/01 08:19:50;;;;;;;3.90;3.00;;;;;;;12.94;82.92;99652.59;130332;1257;114728;-69
2023/11/01 08:22:52;;;;;;;4.50;2.50;;;;;;;13.05;82.88;99655.91;130385;1257;114814;-67
2023/11/01 08:25:54;;;;;;;3.90;3.30;;;;;;;13.17;82.54;99653.98;130345;1259;115091;-63
2023/11/01 08:28:56;;;;;;;5.30;3.10;;;;;;;13.29;82.17;99653.69;130189;1254;114631;-69
2023/11/01 08:31:58;;;;;;;3.90;2.80;;;;;;;13.42;82.22;99659.65;130394;1277;114793;-71
2023/11/01 08:35:00;;;;;;;4.20;2.90;;;;;;;13.55;82.28;99659.41;130290;1257;114732;-70
2023/11/01 08:38:03;;;;;;;5.40;2.60;;;;;;;13.71;82.25;99656.48;130282;1257;114738;-63
2023/11/01 08:41:05;;;;;;;3.10;2.70;;;;;;;13.84;81.86;99653.89;130389;1253;114921;-73
2023/11/01 08:44:07;;;;;;;4.10;2.40;;;;;;;13.96;81.51;99655.92;130038;1254;114813;-71
2023/11/01 08:47:32;;;;;;;8.00;2.70;;;;;;;14.09;81.41;99657.27;130306;1257;115150;-71
2023/11/01 08:50:34;;;;;;;5.60;2.60;;;;;;;14.24;80.76;99659.73;130437;1257;114628;-73
2023/11/01 08:53:38;;;;;;;5.40;2.80;;;;;;;14.37;80.61;99661.83;130213;1265;114903;-72
2023/11/01 08:56:41;;;;;;;;;;;;;;;14.51;80.62;99658.77;129933;1254;128461;-70
2023/11/01 08:59:44;;;;;;;2.90;2.20;;;;;;;14.65;80.42;99665.82;130367;1277;114821;-70
2023/11/01 09:02:46;;;;;;;3.20;2.30;;;;;;;14.77;79.94;99661.19;130119;1272;114757;-72
2023/11/01 09:05:48;;;;;;;5.00;2.60;;;;;;;14.88;79.71;99666.23;130347;1257;114842;-72
2023/11/01 09:08:50;;;;;;;5.50;2.10;;;;;;;15.01;79.42;99663.27;129981;1262;114799;-74
2023/11/01 09:11:52;;;;;;;3.20;2.40;;;;;;;15.14;79.09;99660.06;130309;1258;114779;-70
2023/11/01 09:14:54;;;;;;;7.40;3.20;;;;;;;15.26;79.14;99663.86;130432;1254;114794;-69
2023/11/01 09:17:56;;;;;;;3.40;2.60;;;;;;;15.35;78.96;99660.42;130043;1257;127862;-62
2023/11/01 09:20:58;;;;;;;3.50;3.00;;;;;;;15.41;78.13;99663.56;129984;1254;114744;-68
2023/11/01 09:24:01;;;;;;;3.70;2.30;;;;;;;15.43;77.76;99667.14;130518;1260;115250;-75
2023/11/01 09:27:04;;;;;;;2.60;2.00;;;;;;;15.45;77.55;99664.46;130377;1254;114754;-65
2023/11/01 09:30:08;;;;;;;4.60;2.40;;;;;;;15.51;77.49;99667.05;130327;1257;114757;-65
2023/11/01 09:33:10;;;;;;;3.10;2.00;;;;;;;15.54;76.87;99662.51;130463;1257;114776;-64
2023/11/01 09:36:13;;;;;;;3.10;2.00;;;;;;;15.52;76.89;99662.65;130320;1253;115512;-66
2023/11/01 09:39:17;;;;;;;3.30;2.20;;;;;;;15.51;76.64;99660.73;130356;1259;115153;-63
2023/11/01 09:42:21;;;;;;;3.90;2.00;;;;;;;15.53;76.35;99660.23;130206;1257;116307;-73
2023/11/01 09:45:23;;;;;;;4.10;1.90;;;;;;;15.58;76.25;99660.60;130496;1254;114737;-65
2023/11/01 09:48:25;;;;;;;4.10;2.10;;;;;;;15.65;75.88;99657.13;130086;1259;114726;-67
2023/11/01 09:51:28;;;;;;;2.70;2.20;;;;;;;15.70;75.65;99652.75;130573;1257;114761;-64
2023/11/01 09:54:31;;;;;;;2.90;2.00;;;;;;;15.82;75.93;99650.89;127916;1256;3494206;-70
2023/11/01 09:57:34;;;;;;;4.10;2.30;;;;;;;15.99;75.64;99653.11;129895;1260;114811;-70
2023/11/01 10:00:37;;;;;;;6.50;2.00;;;;;;;16.14;75.56;99652.27;130261;1272;114897;-65
2023/11/01 10:03:40;;;;;;;3.90;2.20;;;;;;;16.24;74.86;99650.87;130386;1257;114741;-67
2023/11/01 10:06:44;;;;;;;2.30;2.00;;;;;;;16.29;74.62;99647.06;130441;1254;114789;-67
2023/11/01 10:09:47;;;;;;;3.70;2.20;;;;;;;16.30;74.35;99640.70;130363;1269;114817;-63
2023/11/01 10:12:49;;;;;;;4.10;2.30;;;;;;;16.29;74.03;99640.55;130326;1256;128556;-64
2023/11/01 10:15:51;;;;;;;2.80;1.60;;;;;;;16.30;73.78;99636.14;130441;1256;114712;-66
2023/11/01 10:18:54;;;;;;;4.50;1.70;;;;;;;16.39;74.14;99634.51;130448;1256;114808;-67
2023/11/01 10:21:56;;;;;;;4.90;1.70;;;;;;;16.48;73.72;99630.86;130070;1262;114906;-68
2023/11/01 10:24:59;;;;;;;5.20;1.70;;;;;;;16.60;73.87;99628.94;130424;1257;114726;-68
2023/11/01 10:28:01;;;;;;;2.90;1.60;;;;;;;16.68;73.30;99624.79;130330;1256;114873;-64
2023/11/01 10:31:04;;;;;;;4.80;1.80;;;;;;;16.73;73.28;99624.19;130437;1276;115259;-66
2023/11/01 10:34:12;;;;;;;3.30;2.20;;;;;;;16.75;72.55;99623.13;130397;1254;128622;-68
2023/11/01 10:37:17;;;;;;;4.40;1.80;;;;;;;16.79;72.44;99618.84;130406;1256;115202;-64
2023/11/01 10:40:19;;;;;;;;;;;;;;;16.87;72.19;99615.61;130420;1254;114718;-65
2023/11/01 10:43:22;;;;;;;5.00;1.70;;;;;;;16.94;71.76;99612.99;130451;1254;114727;-65
2023/11/01 10:46:24;;;;;;;1.60;1.50;;;;;;;17.08;72.03;99606.04;130559;1254;114805;-66
2023/11/01 10:49:27;;;;;;;4.10;1.80;;;;;;;17.22;71.90;99603.00;130205;1276;114769;-64
2023/11/01 10:52:29;;;;;;;4.10;1.40;;;;;;;17.31;70.75;99603.88;129997;1262;128228;-64
2023/11/01 10:55:31;;;;;;;4.30;1.50;;;;;;;17.32;70.19;99595.83;130116;1259;115179;-65
2023/11/01 10:58:37;;;;;;;4.30;1.80;;;;;;;17.36;69.82;99593.85;130235;1256;115279;-63
2023/11/01 11:02:10;;;;;;;1.60;1.30;;;;;;;17.44;70.05;99591.13;130078;1262;115075;-64
2023/11/01 11:05:16;;;;;;;2.70;1.80;;;;;;;17.56;69.95;99588.79;130293;1253;114875;-62
2023/11/01 11:08:18;;;;;;;5.70;3.70;;;;;;;17.70;69.77;99582.55;130327;1254;114885;-64
2023/11/01 11:11:20;;;;;;;4.00;2.80;;;;;;;17.81;69.67;99578.98;130208;1259;114660;-65
2023/11/01 11:14:44;;;;;;;4.20;1.60;;;;;;;17.93;69.46;99578.09;130247;1260;114705;-64
2023/11/01 11:18:05;;;;;;;3.90;1.40;;;;;;;17.96;68.43;99575.30;130007;1276;115262;-65
2023/11/01 11:21:07;;;;;;;3.20;1.10;;;;;;;17.98;68.20;99569.70;129879;1254;114824;-63
2023/11/01 11:24:37;;;;;;;4.60;1.50;;;;;;;17.96;67.98;99571.64;130205;1270;114729;-65
2023/11/01 11:27:49;;;;;;;3.50;1.20;;;;;;;17.88;67.09;99573.50;130256;1254;114766;-63
2023/11/01 11:31:20;;;;;;;1.50;1.40;;;;;;;17.77;67.10;99571.64;129612;1262;128512;-65
2023/11/01 11:34:23;;;;;;;1.10;1.00;;;;;;;17.68;66.93;99563.60;130194;1277;115243;-64
2023/11/01 11:37:28;;;;;;;2.60;1.60;;;;;;;17.59;66.55;99562.69;129940;1259;114751;-63
2023/11/01 11:40:31;;;;;;;2.70;1.50;;;;;;;17.53;66.27;99557.20;129958;1277;114740;-63
2023/11/01 11:44:04;;;;;;;2.70;1.40;;;;;;;17.44;65.47;99554.64;130283;1254;115112;-62
2023/11/01 11:47:29;;;;;;;3.20;1.20;;;;;;;17.38;65.61;99559.45;129846;1259;127687;-62
2023/11/01 11:50:32;;;;;;;1.70;1.00;;;;;;;17.41;65.81;99553.66;129681;1262;115452;-62
2023/11/01 11:53:34;;;;;;;5.80;1.50;;;;;;;17.45;65.19;99553.10;129990;1257;114808;-62
2023/11/01 11:56:37;;;;;;;2.20;1.30;;;;;;;17.43;64.94;99554.27;130147;1254;115086;-63
2023/11/01 11:59:42;;;;;;;1.70;1.10;;;;;;;17.40;65.24;99552.17;129987;1254;114700;-63
2023/11/01 12:02:46;;;;;;;;;;;;;;;17.36;64.74;99552.20;130395;1257;128792;-62
2023/11/01 12:05:55;;;;;;;3.50;1.30;;;;;;;17.29;65.07;99545.04;130400;1256;114744;-63
2023/11/01 12:08:57;;;;;;;3.70;1.80;;;;;;;17.25;65.29;99544.82;130260;1275;114853;-63
2023/11/01 12:12:09;;;;;;;3.20;1.20;;;;;;;17.21;64.92;99537.79;130359;1270;114741;-64
2023/11/01 12:15:12;;;;;;;2.80;1.20;;;;;;;17.12;64.50;99534.41;130447;1256;114709;-64
2023/11/01 12:18:17;;;;;;;1.30;1.10;;;;;;;17.03;64.49;99533.45;130277;1254;114837;-65
2023/11/01 12:21:19;;;;;;;5.40;1.30;;;;;;;16.97;64.66;99538.31;130340;1254;115205;-64
2023/11/01 12:24:25;;;;;;;3.00;1.20;;;;;;;16.95;64.51;99531.99;130127;1258;114821;-64
2023/11/01 12:27:28;;;;;;;4.30;1.70;;;;;;;16.93;63.86;99530.89;130053;1262;114981;-64
2023/11/01 12:30:30;;;;;;;4.30;1.80;;;;;;;16.90;63.97;99528.61;130084;1260;115171;-64
2023/11/01 12:33:34;;;;;;;1.30;1.20;;;;;;;16.86;64.15;99524.83;130193;1258;114734;-64
2023/11/01 12:36:37;;;;;;;1.40;1.30;;;;;;;16.79;63.98;99525.42;130201;1277;115237;-64
2023/11/01 12:39:39;;;;;;;3.20;1.40;;;;;;;16.69;63.89;99523.95;130178;1277;115323;-64
2023/11/01 12:42:46;;;;;;;1.60;1.50;;;;;;;16.60;63.99;99524.77;130132;1260;115227;-64
2023/11/01 12:45:50;;;;;;;3.00;1.20;;;;;;;16.51;64.11;99529.13;130246;1257;114779;-64
2023/11/01 12:48:52;;;;;;;1.40;1.10;;;;;;;16.43;64.18;99525.10;129894;1257;114798;-64
2023/11/01 12:51:54;;;;;;;1.50;1.40;;;;;;;16.35;64.20;99520.55;130404;1273;115315;-64
2023/11/01 12:54:56;;;;;;;2.00;1.40;;;;;;;16.24;64.15;99520.06;130296;1256;114817;-64
2023/11/01 12:57:59;;;;;;;1.30;1.20;;;;;;;16.10;64.19;99523.96;130203;1277;115355;-64
2023/11/01 13:01:01;;;;;;;3.60;1.40;;;;;;;15.96;64.34;99523.70;130196;1257;115316;-65
2023/11/01 13:04:03;;;;;;;3.30;1.20;;;;;;;15.80;64.41;99521.74;130325;1277;114869;-65
2023/11/01 13:07:06;;;;;;;2.30;1.40;;;;;;;15.67;64.62;99524.50;130153;1277;115087;-64
2023/11/01 13:10:09;;;;;;;3.50;1.30;;;;;;;15.56;64.79;99521.26;129949;1257;114816;-63
2023/11/01 13:13:11;;;;;;;2.40;1.10;;;;;;;15.52;65.16;99516.21;130161;1277;114824;-67
2023/11/01 13:16:14;;;;;;;4.10;1.40;;;;;;;15.54;65.33;99514.22;130201;1254;115306;-65
2023/11/01 13:19:17;;;;;;;3.70;1.50;;;;;;;15.57;65.23;99513.19;130348;1256;115160;-64
2023/11/01 13:22:19;;;;;;;4.60;1.20;;;;;;;15.61;65.07;99516.64;130258;1256;114824;-63
2023/11/01 13:25:21;;;;;;;4.50;1.20;;;;;;;15.67;65.10;99518.34;130132;1253;114882;-63
2023/11/01 13:28:24;;;;;;;3.20;1.20;;;;;;;15.71;64.88;99521.85;130208;1259;114741;-64
2023/11/01 13:31:29;;;;;;;2.10;1.10;;;;;;;15.69;65.06;99519.27;130260;1277;114829;-67
2023/11/01 13:34:32;;;;;;;1.50;1.20;;;;;;;15.63;64.93;99523.11;130233;1257;128542;-62
2023/11/01 13:37:34;;;;;;;1.50;1.30;;;;;;;15.57;64.92;99522.58;129907;1258;116372;-61
2023/11/01 13:40:37;;;;;;;2.60;1.30;;;;;;;15.49;64.79;99523.96;130035;1259;114806;-64
2023/11/01 13:43:39;;;;;;;1.90;1.00;;;;;;;15.42;64.90;99520.25;130346;1259;114805;-65
2023/11/01 13:46:41;;;;;;;3.90;1.20;;;;;;;15.37;65.01;99518.70;130295;1256;114810;-65
2023/11/01 13:49:43;;;;;;;1.10;0.90;;;;;;;15.34;65.34;99520.50;130091;1277;114697;-63
2023/11/01 13:52:45;;;;;;;1.50;1.20;;;;;;;15.32;65.35;99515.64;130202;1257;114721;-64
2023/11/01 13:55:48;;;;;;;3.00;1.40;;;;;;;15.27;65.30;99514.95;130269;1258;114831;-65
2023/11/01 13:58:50;;;;;;;3.30;1.60;;;;;;;15.22;65.23;99513.56;130209;1259;115326;-66
2023/11/01 14:01:55;;;;;;;3.30;1.40;;;;;;;15.18;65.52;99511.19;130333;1257;115815;-63
2023/11/01 14:04:57;;;;;;;3.70;1.30;;;;;;;15.15;65.57;99507.63;130269;1259;114838;-65